• Join FlightAware (Why Join?)
  • Login
  • US Flag 
10:07AM EDT


 

Airport Tracker/Info


-or-


 

Live Flight TrackerFlight Track Log ✈ AWE2690 ✈ 02-Nov-2013 ✈ KCLT - KSYR

Flight Track Log - Related Links

Times and Time Zones

All times are in EDT time to prevent confusion due to time zone crossing. See the AWE2690 flight status page for this flight to view local times or setup timezone preferences in your user account.

Time Position Orientation Groundspeed Altitude Reporting Facility
EDT Latitude Longitude Course Direction KTS MPH feet Rate Location/Type
03:09PM 35.2353 -80.9569 North 157 181 1,600  Level Atlanta Center
03:10PM 35.3075 -81.0075 330° Northwest 261 300 4,200 1,980 Climbing Atlanta Center
03:11PM 35.3467 -80.9986 10° North 281 323 5,800 2,580 Climbing Atlanta Center
03:12PM 35.6194 -80.9071 13° North  Level FlightAware Approximate
03:12PM 35.4236 -80.9778 12° North 287 330 8,600  Level Atlanta Center
03:13PM 35.7378 -80.8786 North  Level FlightAware Approximate
03:13PM 35.5064 -80.9544 13° North 294 338 11,100  Level Atlanta Center
03:14PM 35.8579 -80.8618 North  Level FlightAware Approximate
03:14PM 35.5994 -80.9228 15° North 320 368 13,100  Level Atlanta Center
03:15PM 35.6967 -80.8936 14° North 346 398 14,600 1,620 Climbing Atlanta Center
03:16PM 35.8006 -80.8767 North 367 422 16,400 1,560 Climbing Atlanta Center
03:17PM 35.9067 -80.8650 North 379 436 17,800 1,200 Climbing Atlanta Center
03:18PM 36.0231 -80.8500 North 398 458 18,900 1,320 Climbing Atlanta Center
03:19PM 36.1417 -80.8350 North 420 483 20,500 1,620 Climbing Atlanta Center
03:20PM 36.2683 -80.8172 North 441 507 22,200 1,320 Climbing Atlanta Center
03:21PM 36.3994 -80.8017 North 462 532 23,200 1,200 Climbing Atlanta Center
03:22PM 36.5344 -80.7833 North 476 548 24,700 1,380 Climbing Atlanta Center
03:23PM 36.6861 -80.7642 North 481 554 26,000 1,200 Climbing Atlanta Center
03:24PM 36.9258 -80.7364 North 503 579 28,100 1,440 Climbing Washington Center
03:25PM 37.0664 -80.7197 North 503 579 30,100 1,800 Climbing Washington Center
03:26PM 37.1828 -80.6833 14° North 491 565 31,700 1,020 Climbing Washington Center
03:27PM 37.3183 -80.6375 15° North 491 565 32,200 600 Climbing Washington Center
03:28PM 37.4556 -80.5967 13° North 501 577 33,000 720 Climbing Washington Center
03:29PM 37.5931 -80.5483 16° North 501 577 33,700 960 Climbing Washington Center
03:30PM 37.7456 -80.4978 15° North 501 577 35,000 600 Climbing Washington Center
03:31PM 37.8850 -80.4492 15° North 506 582 35,000  Level Washington Center
03:32PM 38.0267 -80.4028 14° North 513 590 35,000  Level Washington Center
03:33PM 38.1728 -80.3514 15° North 524 603 35,000  Level Washington Center
03:34PM 38.3206 -80.3028 14° North 538 619 35,000  Level Washington Center
03:35PM 38.4581 -80.2531 16° North 549 632 35,000  Level Washington Center
03:36PM 38.6081 -80.2014 15° North 549 632 35,000  Level Washington Center
03:38PM 38.9011 -80.0872 17° North 557 641 35,000  Level Cleveland Center
03:39PM 39.0339 -79.9886 30° Northeast 552 635 35,000  Level Cleveland Center
03:40PM 39.1622 -79.8753 34° Northeast 561 646 35,000  Level Cleveland Center
03:41PM 39.2914 -79.7614 34° Northeast 568 654 35,000  Level Cleveland Center
03:42PM 39.4197 -79.6469 35° Northeast 569 655 35,000  Level Cleveland Center
03:43PM 39.5750 -79.5097 34° Northeast 573 659 35,000  Level Cleveland Center
03:44PM 39.7022 -79.3969 34° Northeast 563 648 35,000  Level Cleveland Center
03:46PM 39.8333 -79.2792 35° Northeast 572 658 35,000  Level Cleveland Center
03:47PM 39.9608 -79.1619 35° Northeast 569 655 35,000  Level Cleveland Center
03:48PM 40.0922 -79.0414 35° Northeast 569 655 35,000  Level Cleveland Center
03:49PM 40.2217 -78.9236 35° Northeast 572 658 35,000 -300 Level Cleveland Center
03:50PM 40.3881 -78.8028 29° Northeast 580 667 34,400 -840 Descending Cleveland Center
03:51PM 40.5383 -78.7333 19° North 578 665 33,400 -720 Descending Cleveland Center
03:52PM 40.6908 -78.6631 19° North 583 671 33,000 -240 Descending Cleveland Center
03:53PM 40.8417 -78.5925 19° North 580 667 33,000  Level Cleveland Center
03:54PM 40.9908 -78.5239 19° North 580 667 33,000  Level Cleveland Center
03:55PM 41.1389 -78.4531 20° North 577 664 33,000  Level Cleveland Center
03:56PM 41.3211 -78.3678 19° North 580 667 33,000  Level Cleveland Center
03:57PM 41.4592 -78.3022 20° North 579 666 33,000  Level Cleveland Center
03:58PM 41.6406 -78.2158 20° North 580 667 33,000 -360 Level Cleveland Center
03:59PM 41.7925 -78.1422 20° North 581 669 32,300 -1,080 Descending Cleveland Center
04:00PM 41.9450 -78.0675 20° North 585 673 30,800 -1,620 Descending Cleveland Center
04:01PM 42.0961 -77.9886 21° North 584 672 29,000 -1,080 Descending Cleveland Center
04:02PM 42.2069 -77.8419 44° Northeast 561 646 28,600 -1,320 Descending Cleveland Center
04:03PM 42.3153 -77.6925 46° Northeast 563 648 26,300 -1,800 Descending Cleveland Center
04:04PM 42.4347 -77.5269 46° Northeast 527 606 25,000 -660 Descending Cleveland Center
04:05PM 42.5300 -77.3947 46° Northeast 507 583 25,000 -600 Level Cleveland Center
04:06PM 42.6281 -77.2581 46° Northeast 513 590 23,800 -2,400 Descending Cleveland Center
04:07PM 42.7183 -77.1306 46° Northeast 477 549 20,100 -3,420 Descending Cleveland Center
04:08PM 42.7847 -77.0386 45° Northeast 435 501 17,400 -3,420 Descending Boston Center
04:09PM 42.8542 -76.8861 58° Northeast 404 465 13,800 -3,180 Descending Boston Center
04:10PM 42.8983 -76.7528 66° East 391 450 11,100 -1,620 Descending Boston Center
04:11PM 42.9383 -76.6361 65° Northeast 341 392 10,600 -780 Descending Boston Center
04:12PM 42.9717 -76.5417 64° Northeast 307 353 9,600 -1,200 Descending Boston Center
04:12PM 42.9814 -76.5075 69° East 285 328 9,200 -1,680 Descending Boston Center
04:13PM 43.0042 -76.4008 74° East 290 334 7,700 -1,440 Descending Boston Center
04:14PM 43.0164 -76.3303 77° East 292 336 6,500 -1,620 Descending Boston Center
04:14PM 43.0222 -76.2958 77° East 288 331 6,000 -1,500 Descending Boston Center
04:15PM 43.0367 -76.2044 78° East 287 330 5,000 -1,080 Descending Boston Center
04:15PM 43.0358 -76.1894 94° East 276 318 5,000 -420 Level Boston Center
04:16PM 43.0392 -76.1092 87° East 259 298 4,600 -600 Descending Boston Center
04:16PM 43.0403 -76.1006 80° East 230 265 4,400 -1,620 Descending Boston Center
04:17PM 43.0550 -76.0147 77° East 219 252 2,800 -1,320 Descending Boston Center
04:18PM 43.1044 -76.0125 North 159 183 1,700 -900 Descending Boston Center
04:19PM 43.1119 -76.0511 285° West 160 184 1,100 -720 Descending Boston Center
04:19PM 43.1092 -76.0608 249° West 114 131 1,000 -600 Descending Boston Center
04:20PM 43.1094 -76.1036 271° West 141 162 500 -240 Descending Boston Center
04:23PM 43.1097 -76.1086 274° West 37 43 400 -60 Descending Cleveland Center